createdAt,value
2023-11-18T00:00:57.000Z,4.47
2023-11-18T00:03:23.604Z,4.20
2023-11-18T00:05:50.176Z,4.80
2023-11-18T00:08:19.192Z,4.88
2023-11-18T00:10:46.047Z,4.80
2023-11-18T00:13:12.891Z,4.38
2023-11-18T00:15:39.552Z,4.97
2023-11-18T00:18:06.468Z,5.57
2023-11-18T00:20:37.030Z,5.35
2023-11-18T00:23:06.057Z,5.20
2023-11-18T00:25:35.077Z,4.95
2023-11-18T00:28:01.818Z,5.25
2023-11-18T00:30:29.423Z,4.93
2023-11-18T00:32:56.289Z,5.22
2023-11-18T00:35:22.935Z,5.35
2023-11-18T00:37:49.480Z,5.53
2023-11-18T00:40:19.083Z,4.95
2023-11-18T00:42:46.450Z,5.93
2023-11-18T00:45:15.630Z,5.43
2023-11-18T00:47:45.117Z,5.57
2023-11-18T00:50:11.797Z,5.50
2023-11-18T00:52:39.905Z,5.50
2023-11-18T00:55:08.420Z,5.95
2023-11-18T00:57:35.044Z,5.60
2023-11-18T01:00:01.897Z,5.28
2023-11-18T01:02:28.949Z,5.32
2023-11-18T01:04:56.614Z,6.28
2023-11-18T01:07:23.293Z,5.45
2023-11-18T01:09:50.188Z,6.32
2023-11-18T01:12:16.836Z,5.28
2023-11-18T01:14:43.489Z,5.40
2023-11-18T01:17:14.920Z,5.90
2023-11-18T01:19:41.885Z,6.03
2023-11-18T01:22:09.664Z,5.90
2023-11-18T01:24:36.450Z,5.72
2023-11-18T01:27:03.459Z,6.70
2023-11-18T01:29:30.057Z,5.47
2023-11-18T01:31:57.413Z,6.45
2023-11-18T01:34:24.244Z,5.88
2023-11-18T01:36:51.290Z,5.70
2023-11-18T01:39:21.122Z,5.65
2023-11-18T01:41:47.740Z,6.07
2023-11-18T01:44:14.938Z,6.85
2023-11-18T01:46:46.726Z,6.38
2023-11-18T01:49:15.630Z,6.00
2023-11-18T01:51:52.510Z,6.60
2023-11-18T01:54:20.673Z,6.32
2023-11-18T01:56:49.156Z,6.20
2023-11-18T01:59:19.928Z,6.78
2023-11-18T02:01:52.780Z,5.90
2023-11-18T02:04:21.546Z,6.63
2023-11-18T02:06:52.015Z,6.90
2023-11-18T02:09:20.360Z,5.93
2023-11-18T02:11:55.617Z,5.85
2023-11-18T02:14:27.496Z,6.57
2023-11-18T02:16:57.228Z,6.32
2023-11-18T02:19:26.084Z,6.57
2023-11-18T02:21:55.397Z,6.85
2023-11-18T02:24:31.665Z,6.43
2023-11-18T02:26:59.298Z,6.75
2023-11-18T02:29:27.412Z,6.50
2023-11-18T02:32:02.738Z,6.80
2023-11-18T02:34:33.033Z,6.80
2023-11-18T02:37:01.744Z,7.00
2023-11-18T02:39:34.544Z,7.13
2023-11-18T02:42:03.465Z,7.22
2023-11-18T02:44:33.259Z,6.70
2023-11-18T02:47:00.932Z,7.00
2023-11-18T02:49:28.908Z,7.18
2023-11-18T02:51:56.160Z,7.07
2023-11-18T02:54:23.313Z,7.15
2023-11-18T02:56:50.200Z,6.57
2023-11-18T02:59:17.656Z,6.95
2023-11-18T03:01:44.574Z,6.32
2023-11-18T03:04:11.825Z,6.43
2023-11-18T03:06:38.490Z,6.45
2023-11-18T03:09:08.439Z,6.00
2023-11-18T03:11:35.383Z,6.00
2023-11-18T03:14:02.315Z,6.15
2023-11-18T03:16:29.085Z,6.88
2023-11-18T03:18:56.166Z,6.53
2023-11-18T03:21:22.799Z,6.50
2023-11-18T03:23:49.362Z,6.25
2023-11-18T03:26:15.939Z,6.38
2023-11-18T03:28:42.631Z,6.03
2023-11-18T03:31:10.351Z,6.40
2023-11-18T03:33:37.035Z,6.30
2023-11-18T03:36:04.338Z,5.60
2023-11-18T03:38:30.923Z,5.63
2023-11-18T03:40:59.317Z,6.40
2023-11-18T03:43:25.944Z,5.40
2023-11-18T03:45:57.790Z,5.10
2023-11-18T03:48:24.812Z,5.60
2023-11-18T03:50:51.730Z,5.85
2023-11-18T03:53:18.286Z,5.05
2023-11-18T03:55:44.888Z,5.50
2023-11-18T03:58:11.509Z,5.18
2023-11-18T04:00:38.066Z,5.35
2023-11-18T04:03:07.766Z,5.68
2023-11-18T04:05:35.713Z,5.38
2023-11-18T04:08:02.861Z,5.55
2023-11-18T04:10:29.570Z,5.35
2023-11-18T04:12:56.835Z,5.22
2023-11-18T04:15:23.498Z,5.20
2023-11-18T04:17:50.124Z,5.50
2023-11-18T04:20:17.389Z,5.15
2023-11-18T04:22:45.010Z,4.85
2023-11-18T04:25:13.063Z,5.22
2023-11-18T04:27:41.161Z,5.20
2023-11-18T04:30:13.942Z,5.55
2023-11-18T04:32:43.578Z,4.90
2023-11-18T04:35:11.177Z,5.65
2023-11-18T04:37:37.948Z,5.32
2023-11-18T04:40:05.034Z,5.60
2023-11-18T04:42:31.639Z,5.47
2023-11-18T04:44:58.836Z,5.05
2023-11-18T04:47:26.492Z,5.28
2023-11-18T04:49:53.381Z,5.38
2023-11-18T04:52:20.059Z,5.38
2023-11-18T04:54:49.183Z,4.72
2023-11-18T04:57:15.948Z,4.82
2023-11-18T04:59:45.236Z,5.50
2023-11-18T05:02:11.844Z,5.15
2023-11-18T05:04:38.521Z,4.68
2023-11-18T05:07:05.504Z,4.70
2023-11-18T05:09:32.535Z,5.28
2023-11-18T05:12:00.045Z,5.50
2023-11-18T05:14:27.604Z,5.70
2023-11-18T05:16:54.820Z,5.70
2023-11-18T05:19:21.682Z,5.15
2023-11-18T05:21:50.732Z,5.65
2023-11-18T05:24:17.520Z,5.65
2023-11-18T05:26:44.113Z,5.35
2023-11-18T05:29:11.237Z,5.28
2023-11-18T05:31:38.495Z,5.45
2023-11-18T05:34:05.924Z,5.47
2023-11-18T05:36:38.534Z,5.20
2023-11-18T05:39:10.196Z,5.60
2023-11-18T05:41:37.626Z,5.50
2023-11-18T05:44:04.552Z,5.13
2023-11-18T05:46:31.533Z,5.57
2023-11-18T05:48:58.337Z,5.13
2023-11-18T05:51:26.778Z,5.80
2023-11-18T05:53:54.024Z,6.07
2023-11-18T05:56:23.863Z,5.65
2023-11-18T05:58:51.255Z,5.10
2023-11-18T06:01:18.668Z,5.90
2023-11-18T06:03:46.937Z,4.97
2023-11-18T06:06:15.163Z,5.75
2023-11-18T06:08:44.796Z,6.13
2023-11-18T06:11:15.401Z,5.57
2023-11-18T06:13:50.207Z,5.53
2023-11-18T06:16:25.516Z,5.72
2023-11-18T06:18:54.814Z,5.63
2023-11-18T06:21:28.080Z,5.68
2023-11-18T06:23:56.345Z,6.00
2023-11-18T06:26:23.226Z,5.97
2023-11-18T06:28:52.625Z,6.55
2023-11-18T06:31:19.951Z,5.30
2023-11-18T06:33:47.296Z,5.30
2023-11-18T06:36:23.042Z,5.63
2023-11-18T06:38:51.391Z,5.47
2023-11-18T06:41:21.670Z,6.43
2023-11-18T06:43:57.966Z,6.65
2023-11-18T06:46:26.248Z,5.78
2023-11-18T06:48:55.472Z,5.93
2023-11-18T06:51:25.836Z,6.30
2023-11-18T06:53:53.030Z,5.38
2023-11-18T06:56:19.543Z,5.88
2023-11-18T06:58:46.085Z,5.88
2023-11-18T07:01:16.577Z,6.10
2023-11-18T07:03:43.955Z,6.03
2023-11-18T07:06:11.174Z,6.13
2023-11-18T07:08:38.297Z,7.05
2023-11-18T07:11:05.212Z,6.28
2023-11-18T07:13:32.140Z,6.75
2023-11-18T07:15:58.767Z,6.05
2023-11-18T07:18:25.389Z,5.85
2023-11-18T07:20:53.384Z,6.50
2023-11-18T07:23:20.796Z,7.18
2023-11-18T07:25:47.397Z,7.15
2023-11-18T07:28:16.157Z,6.97
2023-11-18T07:30:43.836Z,6.72
2023-11-18T07:33:10.413Z,6.38
2023-11-18T07:35:37.986Z,7.00
2023-11-18T07:38:04.581Z,6.70
2023-11-18T07:40:31.142Z,5.72
2023-11-18T07:42:58.082Z,7.00
2023-11-18T07:45:24.765Z,6.85
2023-11-18T07:47:52.221Z,6.35
2023-11-18T07:50:21.012Z,6.95
2023-11-18T07:52:51.894Z,6.90
2023-11-18T07:55:19.548Z,5.95
2023-11-18T07:57:46.211Z,6.55
2023-11-18T08:00:16.275Z,6.65
2023-11-18T08:02:43.117Z,6.53
2023-11-18T08:05:14.406Z,6.20
2023-11-18T08:07:41.379Z,6.78
2023-11-18T08:10:13.835Z,6.45
2023-11-18T08:12:44.380Z,6.47
2023-11-18T08:15:10.949Z,6.93
2023-11-18T08:17:37.624Z,6.68
2023-11-18T08:20:16.899Z,6.03
2023-11-18T08:22:47.336Z,6.47
2023-11-18T08:25:15.876Z,6.00
2023-11-18T08:27:42.707Z,6.60
2023-11-18T08:30:13.884Z,5.97
2023-11-18T08:32:41.556Z,5.88
2023-11-18T08:35:08.934Z,5.80
2023-11-18T08:37:38.965Z,5.10
2023-11-18T08:40:16.264Z,6.00
2023-11-18T08:45:30.366Z,5.68
2023-11-18T08:47:58.224Z,6.80
2023-11-18T08:50:26.245Z,5.95
2023-11-18T08:52:59.400Z,6.10
2023-11-18T08:55:40.996Z,6.00
2023-11-18T08:58:16.900Z,6.55
2023-11-18T09:00:47.132Z,5.63
2023-11-18T09:03:18.839Z,6.43
2023-11-18T09:05:57.876Z,6.03
2023-11-18T09:08:30.810Z,7.65
2023-11-18T09:10:58.235Z,6.68
2023-11-18T09:13:32.673Z,7.18
2023-11-18T09:16:05.283Z,5.85
2023-11-18T09:18:34.560Z,6.95
2023-11-18T09:21:02.626Z,6.88
2023-11-18T09:23:30.924Z,6.82
2023-11-18T09:25:57.519Z,6.85
2023-11-18T09:28:31.466Z,6.80
2023-11-18T09:30:58.917Z,6.75
2023-11-18T09:33:27.300Z,6.75
2023-11-18T09:35:59.536Z,7.30
2023-11-18T09:38:33.828Z,6.78
2023-11-18T09:41:03.912Z,6.53
2023-11-18T09:43:34.040Z,6.93
2023-11-18T09:46:15.311Z,7.43
2023-11-18T09:48:50.984Z,7.25
2023-11-18T09:51:25.226Z,7.45
2023-11-18T09:53:54.178Z,7.88
2023-11-18T09:56:38.988Z,8.10
2023-11-18T09:59:45.799Z,7.18
2023-11-18T10:02:13.458Z,7.38
2023-11-18T10:04:40.721Z,6.75
2023-11-18T10:07:12.295Z,7.45
2023-11-18T10:09:39.785Z,7.30
2023-11-18T10:12:09.655Z,7.60
2023-11-18T10:14:37.377Z,7.82
2023-11-18T10:17:08.415Z,8.27
2023-11-18T10:22:33.597Z,7.97
2023-11-18T10:25:02.633Z,8.75
2023-11-18T10:27:29.734Z,9.00
2023-11-18T10:29:57.873Z,8.55
2023-11-18T10:32:28.558Z,8.45
2023-11-18T10:34:57.245Z,8.23
2023-11-18T10:37:24.638Z,8.32
2023-11-18T10:39:53.933Z,8.65
2023-11-18T10:42:20.620Z,8.80
2023-11-18T10:44:59.319Z,8.77
2023-11-18T10:47:30.159Z,9.10
2023-11-18T10:49:57.395Z,8.32
2023-11-18T10:52:26.953Z,8.80
2023-11-18T10:54:57.446Z,9.65
2023-11-18T10:57:25.146Z,8.70
2023-11-18T11:00:14.496Z,8.82
2023-11-18T11:02:45.447Z,9.55
2023-11-18T11:05:20.982Z,8.93
2023-11-18T11:07:50.054Z,11.05
2023-11-18T11:10:17.614Z,9.13
2023-11-18T11:12:54.787Z,8.93
2023-11-18T11:15:30.065Z,9.25
2023-11-18T11:18:11.009Z,9.10
2023-11-18T11:20:46.727Z,10.23
2023-11-18T11:23:28.010Z,9.73
2023-11-18T11:26:10.282Z,10.55
2023-11-18T11:28:59.061Z,9.43
2023-11-18T11:31:33.642Z,9.93
2023-11-18T11:34:07.877Z,9.57
2023-11-18T11:36:49.710Z,9.38
2023-11-18T11:39:21.017Z,8.77
2023-11-18T11:41:52.582Z,8.48
2023-11-18T11:44:21.472Z,8.55
2023-11-18T11:46:54.388Z,8.75
2023-11-18T11:49:23.249Z,8.00
2023-11-18T11:51:55.434Z,7.35
2023-11-18T11:54:30.346Z,6.68
2023-11-18T11:57:01.934Z,6.93
2023-11-18T11:59:47.862Z,6.32
2023-11-18T12:02:17.623Z,6.55
2023-11-18T12:04:53.639Z,6.45
2023-11-18T12:07:21.714Z,6.35
2023-11-18T12:09:48.763Z,5.82
2023-11-18T12:12:22.809Z,5.53
2023-11-18T12:19:37.335Z,5.38
2023-11-18T12:22:30.940Z,6.10
2023-11-18T12:25:00.304Z,6.38
2023-11-18T12:27:52.448Z,7.20
2023-11-18T12:30:26.905Z,6.10
2023-11-18T12:33:10.016Z,5.65
2023-11-18T12:36:14.739Z,6.30
2023-11-18T12:38:59.251Z,5.55
2023-11-18T12:41:39.556Z,6.18
2023-11-18T12:44:27.504Z,6.32
2023-11-18T12:46:56.605Z,7.15
2023-11-18T12:49:25.251Z,7.68
2023-11-18T12:51:53.841Z,6.93
2023-11-18T12:54:24.956Z,6.78
2023-11-18T12:56:55.318Z,6.80
2023-11-18T12:59:22.669Z,5.88
2023-11-18T13:01:58.735Z,6.13
2023-11-18T13:04:28.596Z,7.07
2023-11-18T13:06:56.393Z,6.30
2023-11-18T13:09:27.356Z,5.57
2023-11-18T13:12:01.343Z,5.53
2023-11-18T13:14:36.963Z,4.82
2023-11-18T13:17:07.061Z,4.95
2023-11-18T13:19:35.579Z,5.55
2023-11-18T13:22:09.022Z,6.68
2023-11-18T13:24:46.136Z,5.07
2023-11-18T13:27:20.383Z,5.30
2023-11-18T13:29:52.414Z,5.15
2023-11-18T13:32:24.248Z,5.35
2023-11-18T13:34:52.696Z,5.15
2023-11-18T13:37:23.253Z,6.22
2023-11-18T13:39:56.881Z,5.72
2023-11-18T13:42:25.109Z,5.53
2023-11-18T13:44:53.988Z,5.57
2023-11-18T13:47:21.316Z,5.57
2023-11-18T13:49:51.785Z,5.70
2023-11-18T13:52:20.062Z,4.88
2023-11-18T13:54:48.448Z,4.75
2023-11-18T13:57:15.140Z,4.57
2023-11-18T13:59:44.421Z,4.72
2023-11-18T14:02:11.442Z,4.60
2023-11-18T14:04:38.488Z,4.15
2023-11-18T14:07:06.436Z,3.85
2023-11-18T14:09:37.249Z,3.97
2023-11-18T14:12:07.452Z,3.55
2023-11-18T14:14:34.464Z,4.05
2023-11-18T14:17:02.248Z,3.38
2023-11-18T14:19:30.086Z,3.25
2023-11-18T14:21:57.283Z,3.72
2023-11-18T14:24:28.805Z,3.47
2023-11-18T14:26:56.118Z,3.28
2023-11-18T14:29:24.982Z,3.42
2023-11-18T14:31:53.659Z,2.75
2023-11-18T14:34:20.270Z,2.65
2023-11-18T14:36:47.102Z,3.10
2023-11-18T14:39:18.948Z,3.00
2023-11-18T14:41:46.891Z,3.03
2023-11-18T14:44:13.841Z,2.80
2023-11-18T14:46:42.246Z,2.88
2023-11-18T14:49:11.394Z,3.40
2023-11-18T14:51:38.445Z,2.35
2023-11-18T14:54:06.995Z,2.55
2023-11-18T14:56:36.098Z,2.17
2023-11-18T14:59:02.895Z,2.40
2023-11-18T15:01:30.349Z,2.40
2023-11-18T15:03:57.517Z,2.55
2023-11-18T15:06:28.501Z,2.38
2023-11-18T15:11:23.061Z,2.30
2023-11-18T15:13:51.018Z,2.28
2023-11-18T15:16:20.043Z,1.92
2023-11-18T15:18:48.677Z,2.30
2023-11-18T15:21:16.352Z,2.75
2023-11-18T15:23:43.528Z,2.22
2023-11-18T15:26:11.058Z,2.42
2023-11-18T15:28:38.120Z,2.50
2023-11-18T15:31:05.455Z,2.90
2023-11-18T15:33:32.900Z,2.17
2023-11-18T15:36:00.151Z,1.90
2023-11-18T15:38:27.291Z,2.00
2023-11-18T15:40:54.635Z,2.10
2023-11-18T15:43:22.814Z,1.95
2023-11-18T15:45:49.655Z,1.92
2023-11-18T15:48:16.320Z,2.28
2023-11-18T15:50:42.995Z,2.03
2023-11-18T15:53:09.968Z,2.25
2023-11-18T15:55:39.378Z,1.85
2023-11-18T15:58:06.069Z,1.98
2023-11-18T16:00:33.127Z,1.80
2023-11-18T16:03:02.845Z,1.85
2023-11-18T16:05:35.675Z,1.75
2023-11-18T16:08:04.387Z,1.90
2023-11-18T16:10:31.469Z,2.10
2023-11-18T16:12:59.674Z,1.80
2023-11-18T16:15:28.108Z,2.20
2023-11-18T16:17:56.335Z,1.85
2023-11-18T16:20:25.203Z,1.67
2023-11-18T16:22:53.644Z,1.60
2023-11-18T16:25:23.884Z,1.83
2023-11-18T16:27:54.669Z,1.50
2023-11-18T16:30:25.875Z,1.63
2023-11-18T16:32:53.381Z,2.10
2023-11-18T16:35:21.230Z,2.78
2023-11-18T16:37:48.856Z,2.83
2023-11-18T16:40:16.785Z,2.97
2023-11-18T16:42:47.245Z,2.92
2023-11-18T16:45:14.857Z,2.55
2023-11-18T16:47:42.757Z,2.20
2023-11-18T16:50:11.641Z,2.25
2023-11-18T16:52:41.580Z,2.40
2023-11-18T16:55:12.122Z,2.05
2023-11-18T16:57:38.994Z,2.00
2023-11-18T17:00:25.618Z,2.13
2023-11-18T17:02:59.888Z,2.15
2023-11-18T17:05:32.648Z,2.13
2023-11-18T17:08:00.978Z,2.17
2023-11-18T17:10:28.312Z,2.17
2023-11-18T17:12:55.435Z,2.28
2023-11-18T17:15:22.226Z,2.00
2023-11-18T17:18:16.732Z,2.00
2023-11-18T17:20:43.284Z,1.90
2023-11-18T17:23:09.967Z,1.50
2023-11-18T17:25:36.508Z,1.95
2023-11-18T17:28:05.676Z,1.50
2023-11-18T17:30:38.033Z,1.60
2023-11-18T17:33:04.902Z,1.20
2023-11-18T17:35:31.512Z,1.65
2023-11-18T17:37:58.215Z,1.33
2023-11-18T17:40:24.828Z,1.52
2023-11-18T17:42:54.550Z,1.55
2023-11-18T17:45:21.666Z,1.23
2023-11-18T17:47:48.351Z,1.20
2023-11-18T17:50:16.477Z,1.38
2023-11-18T17:52:47.628Z,1.45
2023-11-18T17:55:14.508Z,1.40
2023-11-18T17:57:45.036Z,1.52
2023-11-18T18:00:13.927Z,1.70
2023-11-18T18:02:41.442Z,1.30
2023-11-18T18:05:09.213Z,1.27
2023-11-18T18:07:36.064Z,1.48
2023-11-18T18:10:02.619Z,1.30
2023-11-18T18:12:29.381Z,1.15
2023-11-18T18:14:57.028Z,1.10
2023-11-18T18:17:23.850Z,1.15
2023-11-18T18:19:51.252Z,1.10
2023-11-18T18:22:18.145Z,0.88
2023-11-18T18:24:44.844Z,1.17
2023-11-18T18:27:12.387Z,1.30
2023-11-18T18:29:39.087Z,1.40
2023-11-18T18:32:06.462Z,1.08
2023-11-18T18:34:33.070Z,1.02
2023-11-18T18:36:59.972Z,0.90
2023-11-18T18:39:26.632Z,1.05
2023-11-18T18:41:53.189Z,0.98
2023-11-18T18:44:19.861Z,0.93
2023-11-18T18:46:46.509Z,0.90
2023-11-18T18:49:13.166Z,0.65
2023-11-18T18:51:39.940Z,0.88
2023-11-18T18:54:06.525Z,0.88
2023-11-18T18:56:33.124Z,0.90
2023-11-18T18:58:59.780Z,0.98
2023-11-18T19:01:27.721Z,0.70
2023-11-18T19:03:54.525Z,1.10
2023-11-18T19:06:21.267Z,1.20
2023-11-18T19:08:47.897Z,1.02
2023-11-18T19:11:14.489Z,1.00
2023-11-18T19:13:42.611Z,1.02
2023-11-18T19:16:10.885Z,0.90
2023-11-18T19:18:38.367Z,0.80
2023-11-18T19:21:05.450Z,1.13
2023-11-18T19:23:32.058Z,0.63
2023-11-18T19:25:58.719Z,0.98
2023-11-18T19:28:25.380Z,0.88
2023-11-18T19:30:51.993Z,1.15
2023-11-18T19:33:18.571Z,0.80
2023-11-18T19:35:45.197Z,1.15
2023-11-18T19:38:11.867Z,1.33
2023-11-18T19:40:38.406Z,1.40
2023-11-18T19:43:06.979Z,1.60
2023-11-18T19:45:34.425Z,1.80
2023-11-18T19:48:01.605Z,1.65
2023-11-18T19:50:28.621Z,2.05
2023-11-18T19:52:55.229Z,1.92
2023-11-18T19:55:22.031Z,1.98
2023-11-18T19:57:48.724Z,1.85
2023-11-18T20:00:19.325Z,2.05
2023-11-18T20:02:46.634Z,1.90
2023-11-18T20:05:13.973Z,2.33
2023-11-18T20:07:40.904Z,1.80
2023-11-18T20:10:09.757Z,1.48
2023-11-18T20:12:36.654Z,1.77
2023-11-18T20:15:03.606Z,1.58
2023-11-18T20:17:33.322Z,1.55
2023-11-18T20:20:00.630Z,1.50
2023-11-18T20:22:27.225Z,1.55
2023-11-18T20:24:53.747Z,1.52
2023-11-18T20:27:20.688Z,1.60
2023-11-18T20:29:47.303Z,1.42
2023-11-18T20:32:14.037Z,1.42
2023-11-18T20:34:40.639Z,1.50
2023-11-18T20:37:07.200Z,1.27
2023-11-18T20:39:34.842Z,1.33
2023-11-18T20:42:01.558Z,1.30
2023-11-18T20:44:28.965Z,1.10
2023-11-18T20:47:04.164Z,1.38
2023-11-18T20:49:30.766Z,1.35
2023-11-18T20:51:58.502Z,1.38
2023-11-18T20:54:25.115Z,1.42
2023-11-18T20:56:51.687Z,1.10
2023-11-18T20:59:19.654Z,1.52
2023-11-18T21:01:47.317Z,1.95
2023-11-18T21:04:13.996Z,1.30
2023-11-18T21:06:40.775Z,1.15
2023-11-18T21:09:07.648Z,1.30
2023-11-18T21:11:34.286Z,1.17
2023-11-18T21:14:00.897Z,1.38
2023-11-18T21:16:27.537Z,1.38
2023-11-18T21:18:54.145Z,1.50
2023-11-18T21:21:20.755Z,1.45
2023-11-18T21:23:49.053Z,1.52
2023-11-18T21:26:15.750Z,1.30
2023-11-18T21:28:42.317Z,1.20
2023-11-18T21:31:09.080Z,1.42
2023-11-18T21:33:38.660Z,1.70
2023-11-18T21:36:05.760Z,2.30
2023-11-18T21:38:32.348Z,2.60
2023-11-18T21:40:58.908Z,2.80
2023-11-18T21:43:25.481Z,2.90
2023-11-18T21:45:52.780Z,2.97
2023-11-18T21:48:22.142Z,3.10
2023-11-18T21:50:49.814Z,3.25
2023-11-18T21:53:16.403Z,2.67
2023-11-18T21:55:43.678Z,2.28
2023-11-18T21:58:10.260Z,2.60
2023-11-18T22:00:45.090Z,2.70
2023-11-18T22:03:13.868Z,2.83
2023-11-18T22:05:40.566Z,2.28
2023-11-18T22:08:08.786Z,2.60
2023-11-18T22:10:35.535Z,2.40
2023-11-18T22:13:02.123Z,2.55
2023-11-18T22:15:28.646Z,2.15
2023-11-18T22:17:55.225Z,2.03
2023-11-18T22:20:25.984Z,2.05
2023-11-18T22:25:19.813Z,1.90
2023-11-18T22:27:48.424Z,2.40
2023-11-18T22:30:17.210Z,1.92
2023-11-18T22:32:44.095Z,2.10
2023-11-18T22:35:10.846Z,2.17
2023-11-18T22:37:37.419Z,1.88
2023-11-18T22:40:10.085Z,1.98
2023-11-18T22:42:38.981Z,2.10
2023-11-18T22:45:06.116Z,2.28
2023-11-18T22:47:32.734Z,2.03
2023-11-18T22:50:01.016Z,1.88
2023-11-18T22:52:27.935Z,2.05
2023-11-18T22:54:54.582Z,1.95
2023-11-18T22:57:21.071Z,2.53
2023-11-18T22:59:47.697Z,1.85
2023-11-18T23:02:17.461Z,2.63
2023-11-18T23:04:46.499Z,2.22
2023-11-18T23:07:15.698Z,2.17
2023-11-18T23:09:42.688Z,2.30
2023-11-18T23:12:10.608Z,2.20
2023-11-18T23:14:38.039Z,2.22
2023-11-18T23:19:41.640Z,2.15
2023-11-18T23:22:14.456Z,2.58
2023-11-18T23:24:40.999Z,2.33
2023-11-18T23:27:08.239Z,2.13
2023-11-18T23:29:34.857Z,2.17
2023-11-18T23:32:01.474Z,2.10
2023-11-18T23:34:28.100Z,1.95
2023-11-18T23:36:54.760Z,2.03
2023-11-18T23:39:29.486Z,2.72
2023-11-18T23:41:56.829Z,2.15
2023-11-18T23:44:25.387Z,2.30
2023-11-18T23:46:53.291Z,2.40
2023-11-18T23:49:20.207Z,2.25
2023-11-18T23:51:47.340Z,2.10
2023-11-18T23:54:14.121Z,1.98
2023-11-18T23:56:40.849Z,1.77
2023-11-18T23:59:08.302Z,1.88
